sensor_id;sensor_type;location;lat;lon;timestamp;P1;durP1;ratioP1;P2;durP2;ratioP2
21519;SDS011;10921;53.614;9.882;2023-03-17T00:00:13;11.65;;;9.93;;
21519;SDS011;10921;53.614;9.882;2023-03-17T00:02:42;11.07;;;9.98;;
21519;SDS011;10921;53.614;9.882;2023-03-17T00:05:19;11.35;;;10.30;;
21519;SDS011;10921;53.614;9.882;2023-03-17T00:07:48;10.77;;;9.88;;
21519;SDS011;10921;53.614;9.882;2023-03-17T00:10:20;10.80;;;9.80;;
21519;SDS011;10921;53.614;9.882;2023-03-17T00:12:51;10.48;;;9.45;;
21519;SDS011;10921;53.614;9.882;2023-03-17T00:15:19;11.40;;;10.40;;
21519;SDS011;10921;53.614;9.882;2023-03-17T00:17:46;11.48;;;10.32;;
21519;SDS011;10921;53.614;9.882;2023-03-17T00:20:17;10.85;;;10.05;;
21519;SDS011;10921;53.614;9.882;2023-03-17T00:22:48;11.80;;;10.60;;
21519;SDS011;10921;53.614;9.882;2023-03-17T00:25:26;11.65;;;10.60;;
21519;SDS011;10921;53.614;9.882;2023-03-17T00:27:54;10.57;;;9.57;;
21519;SDS011;10921;53.614;9.882;2023-03-17T00:30:23;11.18;;;10.05;;
21519;SDS011;10921;53.614;9.882;2023-03-17T00:32:50;10.73;;;9.82;;
21519;SDS011;10921;53.614;9.882;2023-03-17T00:35:26;11.27;;;10.15;;
21519;SDS011;10921;53.614;9.882;2023-03-17T00:37:55;13.25;;;10.10;;
21519;SDS011;10921;53.614;9.882;2023-03-17T00:40:24;10.38;;;9.57;;
21519;SDS011;10921;53.614;9.882;2023-03-17T00:42:54;10.35;;;9.45;;
21519;SDS011;10921;53.614;9.882;2023-03-17T00:45:23;10.88;;;9.88;;
21519;SDS011;10921;53.614;9.882;2023-03-17T00:47:51;11.15;;;10.20;;
21519;SDS011;10921;53.614;9.882;2023-03-17T00:50:24;10.70;;;9.90;;
21519;SDS011;10921;53.614;9.882;2023-03-17T00:52:54;11.18;;;10.15;;
21519;SDS011;10921;53.614;9.882;2023-03-17T00:55:22;10.70;;;9.75;;
21519;SDS011;10921;53.614;9.882;2023-03-17T00:57:50;12.45;;;9.73;;
21519;SDS011;10921;53.614;9.882;2023-03-17T01:02:44;10.70;;;9.88;;
21519;SDS011;10921;53.614;9.882;2023-03-17T01:05:11;11.32;;;10.25;;
21519;SDS011;10921;53.614;9.882;2023-03-17T01:07:38;10.95;;;9.95;;
21519;SDS011;10921;53.614;9.882;2023-03-17T01:10:10;11.05;;;9.85;;
21519;SDS011;10921;53.614;9.882;2023-03-17T01:12:39;11.00;;;10.00;;
21519;SDS011;10921;53.614;9.882;2023-03-17T01:15:05;10.73;;;9.93;;
21519;SDS011;10921;53.614;9.882;2023-03-17T01:17:32;10.30;;;9.50;;
21519;SDS011;10921;53.614;9.882;2023-03-17T01:19:58;11.75;;;10.57;;
21519;SDS011;10921;53.614;9.882;2023-03-17T01:22:27;11.57;;;10.48;;
21519;SDS011;10921;53.614;9.882;2023-03-17T01:24:54;11.98;;;10.15;;
21519;SDS011;10921;53.614;9.882;2023-03-17T01:27:20;12.02;;;10.80;;
21519;SDS011;10921;53.614;9.882;2023-03-17T01:29:47;11.93;;;10.75;;
21519;SDS011;10921;53.614;9.882;2023-03-17T01:32:18;11.25;;;10.25;;
21519;SDS011;10921;53.614;9.882;2023-03-17T01:34:45;11.32;;;10.23;;
21519;SDS011;10921;53.614;9.882;2023-03-17T01:37:11;11.38;;;10.30;;
21519;SDS011;10921;53.614;9.882;2023-03-17T01:39:40;12.23;;;10.98;;
21519;SDS011;10921;53.614;9.882;2023-03-17T01:42:07;12.02;;;10.82;;
21519;SDS011;10921;53.614;9.882;2023-03-17T01:44:33;11.20;;;10.13;;
21519;SDS011;10921;53.614;9.882;2023-03-17T01:47:00;11.77;;;10.82;;
21519;SDS011;10921;53.614;9.882;2023-03-17T01:49:27;11.55;;;10.60;;
21519;SDS011;10921;53.614;9.882;2023-03-17T01:52:12;12.37;;;11.00;;
21519;SDS011;10921;53.614;9.882;2023-03-17T01:55:03;11.95;;;10.95;;
21519;SDS011;10921;53.614;9.882;2023-03-17T02:00:23;12.15;;;10.68;;
21519;SDS011;10921;53.614;9.882;2023-03-17T02:02:52;10.88;;;9.93;;
21519;SDS011;10921;53.614;9.882;2023-03-17T02:05:24;11.38;;;10.48;;
21519;SDS011;10921;53.614;9.882;2023-03-17T02:07:54;12.43;;;11.05;;
21519;SDS011;10921;53.614;9.882;2023-03-17T02:10:22;11.98;;;10.98;;
21519;SDS011;10921;53.614;9.882;2023-03-17T02:12:51;11.65;;;10.65;;
21519;SDS011;10921;53.614;9.882;2023-03-17T02:15:21;11.38;;;10.43;;
21519;SDS011;10921;53.614;9.882;2023-03-17T02:17:49;11.25;;;10.43;;
21519;SDS011;10921;53.614;9.882;2023-03-17T02:22:43;11.90;;;10.73;;
21519;SDS011;10921;53.614;9.882;2023-03-17T02:25:10;13.23;;;11.85;;
21519;SDS011;10921;53.614;9.882;2023-03-17T02:27:44;11.43;;;10.52;;
21519;SDS011;10921;53.614;9.882;2023-03-17T02:30:18;11.48;;;10.50;;
21519;SDS011;10921;53.614;9.882;2023-03-17T02:32:46;11.98;;;10.80;;
21519;SDS011;10921;53.614;9.882;2023-03-17T02:35:13;12.27;;;11.18;;
21519;SDS011;10921;53.614;9.882;2023-03-17T02:37:40;12.00;;;10.85;;
21519;SDS011;10921;53.614;9.882;2023-03-17T02:40:09;12.32;;;11.00;;
21519;SDS011;10921;53.614;9.882;2023-03-17T02:42:36;13.30;;;10.85;;
21519;SDS011;10921;53.614;9.882;2023-03-17T02:45:05;12.43;;;11.30;;
21519;SDS011;10921;53.614;9.882;2023-03-17T02:47:32;12.05;;;10.60;;
21519;SDS011;10921;53.614;9.882;2023-03-17T02:49:59;11.52;;;10.52;;
21519;SDS011;10921;53.614;9.882;2023-03-17T02:52:26;11.77;;;10.77;;
21519;SDS011;10921;53.614;9.882;2023-03-17T02:54:52;11.63;;;10.48;;
21519;SDS011;10921;53.614;9.882;2023-03-17T02:57:19;11.52;;;10.63;;
21519;SDS011;10921;53.614;9.882;2023-03-17T02:59:46;12.00;;;10.93;;
21519;SDS011;10921;53.614;9.882;2023-03-17T03:02:13;12.55;;;11.35;;
21519;SDS011;10921;53.614;9.882;2023-03-17T03:04:39;11.27;;;10.15;;
21519;SDS011;10921;53.614;9.882;2023-03-17T03:07:06;11.90;;;10.65;;
21519;SDS011;10921;53.614;9.882;2023-03-17T03:09:33;11.85;;;10.95;;
21519;SDS011;10921;53.614;9.882;2023-03-17T03:12:00;12.32;;;11.13;;
21519;SDS011;10921;53.614;9.882;2023-03-17T03:14:27;12.77;;;11.45;;
21519;SDS011;10921;53.614;9.882;2023-03-17T03:16:54;12.20;;;11.10;;
21519;SDS011;10921;53.614;9.882;2023-03-17T03:19:20;15.52;;;10.93;;
21519;SDS011;10921;53.614;9.882;2023-03-17T03:21:48;12.93;;;11.65;;
21519;SDS011;10921;53.614;9.882;2023-03-17T03:24:14;11.70;;;10.60;;
21519;SDS011;10921;53.614;9.882;2023-03-17T03:26:41;12.90;;;11.57;;
21519;SDS011;10921;53.614;9.882;2023-03-17T03:29:07;12.63;;;11.32;;
21519;SDS011;10921;53.614;9.882;2023-03-17T03:31:34;13.13;;;11.75;;
21519;SDS011;10921;53.614;9.882;2023-03-17T03:34:00;12.13;;;11.00;;
21519;SDS011;10921;53.614;9.882;2023-03-17T03:36:27;11.93;;;10.77;;
21519;SDS011;10921;53.614;9.882;2023-03-17T03:38:53;11.88;;;10.90;;
21519;SDS011;10921;53.614;9.882;2023-03-17T03:41:20;12.20;;;10.98;;
21519;SDS011;10921;53.614;9.882;2023-03-17T03:43:46;15.95;;;11.00;;
21519;SDS011;10921;53.614;9.882;2023-03-17T03:46:13;12.35;;;11.13;;
21519;SDS011;10921;53.614;9.882;2023-03-17T03:48:40;12.40;;;11.05;;
21519;SDS011;10921;53.614;9.882;2023-03-17T03:51:07;11.65;;;10.40;;
21519;SDS011;10921;53.614;9.882;2023-03-17T03:53:33;12.07;;;11.05;;
21519;SDS011;10921;53.614;9.882;2023-03-17T03:56:00;12.93;;;11.57;;
21519;SDS011;10921;53.614;9.882;2023-03-17T03:58:27;13.55;;;11.25;;
21519;SDS011;10921;53.614;9.882;2023-03-17T04:00:54;12.77;;;11.52;;
21519;SDS011;10921;53.614;9.882;2023-03-17T04:03:20;12.93;;;11.73;;
21519;SDS011;10921;53.614;9.882;2023-03-17T04:05:47;11.90;;;10.80;;
21519;SDS011;10921;53.614;9.882;2023-03-17T04:08:13;12.52;;;11.43;;
21519;SDS011;10921;53.614;9.882;2023-03-17T04:10:40;12.25;;;11.18;;
21519;SDS011;10921;53.614;9.882;2023-03-17T04:13:07;12.15;;;11.05;;
21519;SDS011;10921;53.614;9.882;2023-03-17T04:15:33;13.05;;;11.77;;
21519;SDS011;10921;53.614;9.882;2023-03-17T04:18:00;12.50;;;11.30;;
21519;SDS011;10921;53.614;9.882;2023-03-17T04:20:26;13.82;;;12.15;;
21519;SDS011;10921;53.614;9.882;2023-03-17T04:22:53;12.32;;;11.23;;
21519;SDS011;10921;53.614;9.882;2023-03-17T04:25:20;13.13;;;11.80;;
21519;SDS011;10921;53.614;9.882;2023-03-17T04:27:46;13.80;;;12.40;;
21519;SDS011;10921;53.614;9.882;2023-03-17T04:30:13;13.50;;;12.30;;
21519;SDS011;10921;53.614;9.882;2023-03-17T04:32:41;13.15;;;11.77;;
21519;SDS011;10921;53.614;9.882;2023-03-17T04:35:16;14.02;;;11.32;;
21519;SDS011;10921;53.614;9.882;2023-03-17T04:37:44;12.85;;;11.73;;
21519;SDS011;10921;53.614;9.882;2023-03-17T04:40:11;13.88;;;12.15;;
21519;SDS011;10921;53.614;9.882;2023-03-17T04:42:39;14.70;;;12.20;;
21519;SDS011;10921;53.614;9.882;2023-03-17T04:45:06;16.52;;;11.98;;
21519;SDS011;10921;53.614;9.882;2023-03-17T04:47:34;13.55;;;12.05;;
21519;SDS011;10921;53.614;9.882;2023-03-17T04:50:01;12.63;;;11.43;;
21519;SDS011;10921;53.614;9.882;2023-03-17T04:52:27;13.57;;;11.70;;
21519;SDS011;10921;53.614;9.882;2023-03-17T04:54:54;16.27;;;12.27;;
21519;SDS011;10921;53.614;9.882;2023-03-17T04:57:21;14.70;;;12.02;;
21519;SDS011;10921;53.614;9.882;2023-03-17T04:59:49;13.13;;;11.50;;
21519;SDS011;10921;53.614;9.882;2023-03-17T05:02:15;15.40;;;11.65;;
21519;SDS011;10921;53.614;9.882;2023-03-17T05:04:44;13.63;;;12.23;;
21519;SDS011;10921;53.614;9.882;2023-03-17T05:07:11;13.95;;;12.55;;
21519;SDS011;10921;53.614;9.882;2023-03-17T05:09:37;13.40;;;11.80;;
21519;SDS011;10921;53.614;9.882;2023-03-17T05:12:04;14.07;;;12.73;;
21519;SDS011;10921;53.614;9.882;2023-03-17T05:14:31;17.05;;;12.00;;
21519;SDS011;10921;53.614;9.882;2023-03-17T05:16:57;19.45;;;15.23;;
21519;SDS011;10921;53.614;9.882;2023-03-17T05:19:24;13.88;;;12.50;;
21519;SDS011;10921;53.614;9.882;2023-03-17T05:21:51;16.08;;;12.60;;
21519;SDS011;10921;53.614;9.882;2023-03-17T05:24:18;22.80;;;13.68;;
21519;SDS011;10921;53.614;9.882;2023-03-17T05:26:44;20.65;;;13.93;;
21519;SDS011;10921;53.614;9.882;2023-03-17T05:29:11;18.85;;;14.80;;
21519;SDS011;10921;53.614;9.882;2023-03-17T05:31:37;25.35;;;14.27;;
21519;SDS011;10921;53.614;9.882;2023-03-17T05:34:04;20.38;;;14.20;;
21519;SDS011;10921;53.614;9.882;2023-03-17T05:36:31;17.98;;;13.68;;
21519;SDS011;10921;53.614;9.882;2023-03-17T05:38:58;17.95;;;13.52;;
21519;SDS011;10921;53.614;9.882;2023-03-17T05:41:25;16.38;;;14.18;;
21519;SDS011;10921;53.614;9.882;2023-03-17T05:43:51;20.35;;;13.70;;
21519;SDS011;10921;53.614;9.882;2023-03-17T05:46:18;23.35;;;14.25;;
21519;SDS011;10921;53.614;9.882;2023-03-17T05:48:45;19.08;;;14.23;;
21519;SDS011;10921;53.614;9.882;2023-03-17T05:51:12;17.60;;;13.38;;
21519;SDS011;10921;53.614;9.882;2023-03-17T05:53:38;26.95;;;14.90;;
21519;SDS011;10921;53.614;9.882;2023-03-17T05:56:05;21.25;;;13.75;;
21519;SDS011;10921;53.614;9.882;2023-03-17T05:58:32;22.77;;;13.68;;
21519;SDS011;10921;53.614;9.882;2023-03-17T06:00:59;17.08;;;13.15;;
21519;SDS011;10921;53.614;9.882;2023-03-17T06:03:26;18.52;;;13.25;;
21519;SDS011;10921;53.614;9.882;2023-03-17T06:05:53;17.25;;;15.00;;
21519;SDS011;10921;53.614;9.882;2023-03-17T06:08:19;20.95;;;13.10;;
21519;SDS011;10921;53.614;9.882;2023-03-17T06:10:46;17.35;;;14.23;;
21519;SDS011;10921;53.614;9.882;2023-03-17T06:13:13;15.35;;;13.40;;
21519;SDS011;10921;53.614;9.882;2023-03-17T06:15:40;18.98;;;13.23;;
21519;SDS011;10921;53.614;9.882;2023-03-17T06:18:07;19.17;;;13.40;;
21519;SDS011;10921;53.614;9.882;2023-03-17T06:20:34;14.48;;;13.05;;
21519;SDS011;10921;53.614;9.882;2023-03-17T06:23:00;20.40;;;13.27;;
21519;SDS011;10921;53.614;9.882;2023-03-17T06:25:31;13.85;;;12.35;;
21519;SDS011;10921;53.614;9.882;2023-03-17T06:27:59;14.18;;;12.75;;
21519;SDS011;10921;53.614;9.882;2023-03-17T06:30:28;19.50;;;13.52;;
21519;SDS011;10921;53.614;9.882;2023-03-17T06:32:55;19.73;;;13.30;;
21519;SDS011;10921;53.614;9.882;2023-03-17T06:35:22;19.85;;;13.45;;
21519;SDS011;10921;53.614;9.882;2023-03-17T06:37:49;18.35;;;13.50;;
21519;SDS011;10921;53.614;9.882;2023-03-17T06:40:16;17.52;;;13.23;;
21519;SDS011;10921;53.614;9.882;2023-03-17T06:42:43;17.27;;;13.80;;
21519;SDS011;10921;53.614;9.882;2023-03-17T06:45:10;19.20;;;13.30;;
21519;SDS011;10921;53.614;9.882;2023-03-17T06:47:37;14.55;;;12.95;;
21519;SDS011;10921;53.614;9.882;2023-03-17T06:50:05;20.10;;;14.18;;
21519;SDS011;10921;53.614;9.882;2023-03-17T06:52:35;20.00;;;13.80;;
21519;SDS011;10921;53.614;9.882;2023-03-17T06:55:02;17.42;;;13.70;;
21519;SDS011;10921;53.614;9.882;2023-03-17T06:57:30;15.77;;;14.15;;
21519;SDS011;10921;53.614;9.882;2023-03-17T06:59:57;17.67;;;13.65;;
21519;SDS011;10921;53.614;9.882;2023-03-17T07:02:23;25.52;;;14.40;;
21519;SDS011;10921;53.614;9.882;2023-03-17T07:04:50;16.08;;;13.68;;
21519;SDS011;10921;53.614;9.882;2023-03-17T07:07:17;18.80;;;14.70;;
21519;SDS011;10921;53.614;9.882;2023-03-17T07:09:45;16.40;;;14.30;;
21519;SDS011;10921;53.614;9.882;2023-03-17T07:12:12;16.67;;;13.82;;
21519;SDS011;10921;53.614;9.882;2023-03-17T07:14:39;16.20;;;14.13;;
21519;SDS011;10921;53.614;9.882;2023-03-17T07:17:09;19.50;;;15.07;;
21519;SDS011;10921;53.614;9.882;2023-03-17T07:19:42;15.73;;;13.82;;
21519;SDS011;10921;53.614;9.882;2023-03-17T07:22:10;18.52;;;14.60;;
21519;SDS011;10921;53.614;9.882;2023-03-17T07:24:37;21.40;;;14.38;;
21519;SDS011;10921;53.614;9.882;2023-03-17T07:27:04;23.75;;;14.73;;
21519;SDS011;10921;53.614;9.882;2023-03-17T07:29:31;17.00;;;14.63;;
21519;SDS011;10921;53.614;9.882;2023-03-17T07:31:59;15.88;;;14.20;;
21519;SDS011;10921;53.614;9.882;2023-03-17T07:34:26;15.43;;;13.57;;
21519;SDS011;10921;53.614;9.882;2023-03-17T07:36:53;17.92;;;14.00;;
21519;SDS011;10921;53.614;9.882;2023-03-17T07:39:20;16.10;;;14.25;;
21519;SDS011;10921;53.614;9.882;2023-03-17T07:41:46;17.27;;;13.93;;
21519;SDS011;10921;53.614;9.882;2023-03-17T07:44:18;16.55;;;13.70;;
21519;SDS011;10921;53.614;9.882;2023-03-17T07:46:44;15.38;;;13.75;;
21519;SDS011;10921;53.614;9.882;2023-03-17T07:49:11;15.02;;;13.52;;
21519;SDS011;10921;53.614;9.882;2023-03-17T07:51:38;16.30;;;14.23;;
21519;SDS011;10921;53.614;9.882;2023-03-17T07:54:11;19.75;;;14.10;;
21519;SDS011;10921;53.614;9.882;2023-03-17T07:56:40;14.80;;;13.50;;
21519;SDS011;10921;53.614;9.882;2023-03-17T07:59:07;15.55;;;13.95;;
21519;SDS011;10921;53.614;9.882;2023-03-17T08:01:34;18.55;;;14.43;;
21519;SDS011;10921;53.614;9.882;2023-03-17T08:04:01;18.80;;;14.57;;
21519;SDS011;10921;53.614;9.882;2023-03-17T08:06:29;16.00;;;14.07;;
21519;SDS011;10921;53.614;9.882;2023-03-17T08:08:57;16.92;;;14.43;;
21519;SDS011;10921;53.614;9.882;2023-03-17T08:11:24;17.85;;;15.93;;
21519;SDS011;10921;53.614;9.882;2023-03-17T08:13:52;17.42;;;15.10;;
21519;SDS011;10921;53.614;9.882;2023-03-17T08:16:18;18.83;;;13.10;;
21519;SDS011;10921;53.614;9.882;2023-03-17T08:18:45;14.50;;;13.05;;
21519;SDS011;10921;53.614;9.882;2023-03-17T08:21:12;15.15;;;13.40;;
21519;SDS011;10921;53.614;9.882;2023-03-17T08:23:41;16.25;;;13.90;;
21519;SDS011;10921;53.614;9.882;2023-03-17T08:26:08;17.35;;;13.80;;
21519;SDS011;10921;53.614;9.882;2023-03-17T08:28:35;17.17;;;15.52;;
21519;SDS011;10921;53.614;9.882;2023-03-17T08:31:35;19.60;;;13.35;;
21519;SDS011;10921;53.614;9.882;2023-03-17T08:34:14;16.45;;;14.73;;
21519;SDS011;10921;53.614;9.882;2023-03-17T08:36:41;17.23;;;13.90;;
21519;SDS011;10921;53.614;9.882;2023-03-17T08:39:08;17.52;;;14.82;;
21519;SDS011;10921;53.614;9.882;2023-03-17T08:41:35;19.25;;;15.55;;
21519;SDS011;10921;53.614;9.882;2023-03-17T08:44:02;18.38;;;15.10;;
21519;SDS011;10921;53.614;9.882;2023-03-17T08:46:30;14.95;;;13.40;;
21519;SDS011;10921;53.614;9.882;2023-03-17T08:48:58;15.80;;;13.25;;
21519;SDS011;10921;53.614;9.882;2023-03-17T08:51:27;14.48;;;13.05;;
21519;SDS011;10921;53.614;9.882;2023-03-17T08:56:22;15.30;;;12.80;;
21519;SDS011;10921;53.614;9.882;2023-03-17T08:58:49;14.57;;;13.05;;
21519;SDS011;10921;53.614;9.882;2023-03-17T09:01:17;18.85;;;13.77;;
21519;SDS011;10921;53.614;9.882;2023-03-17T09:03:46;16.50;;;13.77;;
21519;SDS011;10921;53.614;9.882;2023-03-17T09:06:13;17.58;;;13.55;;
21519;SDS011;10921;53.614;9.882;2023-03-17T09:08:41;17.05;;;13.30;;
21519;SDS011;10921;53.614;9.882;2023-03-17T09:11:13;14.25;;;12.75;;
21519;SDS011;10921;53.614;9.882;2023-03-17T09:13:41;13.98;;;12.63;;
21519;SDS011;10921;53.614;9.882;2023-03-17T09:16:09;20.30;;;13.43;;
21519;SDS011;10921;53.614;9.882;2023-03-17T09:18:36;14.70;;;12.63;;
21519;SDS011;10921;53.614;9.882;2023-03-17T09:21:03;15.77;;;13.55;;
21519;SDS011;10921;53.614;9.882;2023-03-17T09:23:30;17.35;;;12.77;;
21519;SDS011;10921;53.614;9.882;2023-03-17T09:25:58;14.43;;;13.00;;
21519;SDS011;10921;53.614;9.882;2023-03-17T09:28:25;13.98;;;12.50;;
21519;SDS011;10921;53.614;9.882;2023-03-17T09:30:51;13.85;;;12.45;;
21519;SDS011;10921;53.614;9.882;2023-03-17T09:33:23;13.70;;;12.45;;
21519;SDS011;10921;53.614;9.882;2023-03-17T09:35:52;18.70;;;12.93;;
21519;SDS011;10921;53.614;9.882;2023-03-17T09:38:22;18.88;;;12.30;;
21519;SDS011;10921;53.614;9.882;2023-03-17T09:40:52;15.02;;;13.52;;
21519;SDS011;10921;53.614;9.882;2023-03-17T09:49:02;14.65;;;12.75;;
21519;SDS011;10921;53.614;9.882;2023-03-17T09:51:30;16.55;;;12.70;;
21519;SDS011;10921;53.614;9.882;2023-03-17T09:53:58;14.70;;;12.93;;
21519;SDS011;10921;53.614;9.882;2023-03-17T09:56:29;15.27;;;12.88;;
21519;SDS011;10921;53.614;9.882;2023-03-17T09:59:18;14.18;;;12.80;;
21519;SDS011;10921;53.614;9.882;2023-03-17T10:01:55;14.95;;;12.48;;
21519;SDS011;10921;53.614;9.882;2023-03-17T10:04:25;14.60;;;12.43;;
21519;SDS011;10921;53.614;9.882;2023-03-17T10:06:55;14.38;;;12.65;;
21519;SDS011;10921;53.614;9.882;2023-03-17T10:12:37;13.63;;;12.18;;
21519;SDS011;10921;53.614;9.882;2023-03-17T10:15:13;14.13;;;12.52;;
21519;SDS011;10921;53.614;9.882;2023-03-17T10:17:46;19.60;;;12.25;;
21519;SDS011;10921;53.614;9.882;2023-03-17T10:20:23;13.52;;;12.23;;
21519;SDS011;10921;53.614;9.882;2023-03-17T10:23:04;15.60;;;12.45;;
21519;SDS011;10921;53.614;9.882;2023-03-17T10:25:33;12.40;;;11.50;;
21519;SDS011;10921;53.614;9.882;2023-03-17T10:30:46;16.92;;;12.40;;
21519;SDS011;10921;53.614;9.882;2023-03-17T10:33:12;13.23;;;11.85;;
21519;SDS011;10921;53.614;9.882;2023-03-17T10:35:39;13.82;;;12.52;;
21519;SDS011;10921;53.614;9.882;2023-03-17T10:38:14;13.65;;;12.35;;
21519;SDS011;10921;53.614;9.882;2023-03-17T10:40:46;13.65;;;12.25;;
21519;SDS011;10921;53.614;9.882;2023-03-17T10:43:21;13.85;;;12.55;;
21519;SDS011;10921;53.614;9.882;2023-03-17T10:45:59;13.02;;;11.73;;
21519;SDS011;10921;53.614;9.882;2023-03-17T10:48:29;13.10;;;11.85;;
21519;SDS011;10921;53.614;9.882;2023-03-17T10:51:04;13.07;;;11.25;;
21519;SDS011;10921;53.614;9.882;2023-03-17T10:53:39;14.88;;;11.52;;
21519;SDS011;10921;53.614;9.882;2023-03-17T10:56:13;12.68;;;11.35;;
21519;SDS011;10921;53.614;9.882;2023-03-17T10:58:52;14.07;;;11.70;;
21519;SDS011;10921;53.614;9.882;2023-03-17T11:01:35;12.45;;;11.25;;
21519;SDS011;10921;53.614;9.882;2023-03-17T11:04:28;13.10;;;11.73;;
21519;SDS011;10921;53.614;9.882;2023-03-17T11:06:59;12.70;;;11.38;;
21519;SDS011;10921;53.614;9.882;2023-03-17T11:09:34;15.05;;;11.85;;
21519;SDS011;10921;53.614;9.882;2023-03-17T11:12:04;14.07;;;11.48;;
21519;SDS011;10921;53.614;9.882;2023-03-17T11:14:49;13.18;;;11.73;;
21519;SDS011;10921;53.614;9.882;2023-03-17T11:17:16;14.73;;;11.80;;
21519;SDS011;10921;53.614;9.882;2023-03-17T11:20:05;12.88;;;11.80;;
21519;SDS011;10921;53.614;9.882;2023-03-17T11:23:03;12.57;;;11.48;;
21519;SDS011;10921;53.614;9.882;2023-03-17T11:25:31;13.68;;;11.30;;
21519;SDS011;10921;53.614;9.882;2023-03-17T11:28:07;12.27;;;11.07;;
21519;SDS011;10921;53.614;9.882;2023-03-17T11:39:03;11.95;;;10.85;;
21519;SDS011;10921;53.614;9.882;2023-03-17T11:41:57;12.63;;;11.32;;
21519;SDS011;10921;53.614;9.882;2023-03-17T11:55:57;12.27;;;10.38;;
21519;SDS011;10921;53.614;9.882;2023-03-17T11:58:40;11.13;;;10.10;;
21519;SDS011;10921;53.614;9.882;2023-03-17T12:06:15;10.98;;;10.07;;
21519;SDS011;10921;53.614;9.882;2023-03-17T12:08:53;11.30;;;10.20;;
21519;SDS011;10921;53.614;9.882;2023-03-17T12:11:26;11.50;;;10.25;;
21519;SDS011;10921;53.614;9.882;2023-03-17T12:14:03;11.63;;;10.40;;
21519;SDS011;10921;53.614;9.882;2023-03-17T12:19:16;12.05;;;11.15;;
21519;SDS011;10921;53.614;9.882;2023-03-17T12:21:49;11.93;;;10.73;;
21519;SDS011;10921;53.614;9.882;2023-03-17T12:27:52;14.52;;;11.80;;
21519;SDS011;10921;53.614;9.882;2023-03-17T12:30:06;14.82;;;11.27;;
21519;SDS011;10921;53.614;9.882;2023-03-17T12:32:57;11.90;;;10.85;;
21519;SDS011;10921;53.614;9.882;2023-03-17T12:35:32;12.05;;;11.00;;
21519;SDS011;10921;53.614;9.882;2023-03-17T12:38:23;11.85;;;10.73;;
21519;SDS011;10921;53.614;9.882;2023-03-17T12:41:22;11.45;;;10.55;;
21519;SDS011;10921;53.614;9.882;2023-03-17T12:46:47;11.75;;;10.68;;
21519;SDS011;10921;53.614;9.882;2023-03-17T12:52:23;11.55;;;10.60;;
21519;SDS011;10921;53.614;9.882;2023-03-17T12:54:51;12.05;;;10.82;;
21519;SDS011;10921;53.614;9.882;2023-03-17T12:57:26;11.68;;;10.77;;
21519;SDS011;10921;53.614;9.882;2023-03-17T13:02:49;11.88;;;10.77;;
21519;SDS011;10921;53.614;9.882;2023-03-17T13:05:32;12.00;;;11.07;;
21519;SDS011;10921;53.614;9.882;2023-03-17T13:08:03;11.73;;;10.80;;
21519;SDS011;10921;53.614;9.882;2023-03-17T13:10:41;13.65;;;11.07;;
21519;SDS011;10921;53.614;9.882;2023-03-17T13:21:27;12.65;;;11.45;;
21519;SDS011;10921;53.614;9.882;2023-03-17T13:34:47;11.85;;;10.73;;
21519;SDS011;10921;53.614;9.882;2023-03-17T13:37:19;11.73;;;10.73;;
21519;SDS011;10921;53.614;9.882;2023-03-17T13:45:42;11.20;;;10.20;;
21519;SDS011;10921;53.614;9.882;2023-03-17T13:50:52;11.60;;;10.50;;
21519;SDS011;10921;53.614;9.882;2023-03-17T13:53:23;11.63;;;10.43;;
21519;SDS011;10921;53.614;9.882;2023-03-17T13:56:07;10.70;;;9.90;;
21519;SDS011;10921;53.614;9.882;2023-03-17T13:58:34;10.77;;;9.88;;
21519;SDS011;10921;53.614;9.882;2023-03-17T14:01:15;10.70;;;9.82;;
21519;SDS011;10921;53.614;9.882;2023-03-17T14:03:45;11.18;;;10.27;;
21519;SDS011;10921;53.614;9.882;2023-03-17T14:06:14;10.95;;;10.05;;
21519;SDS011;10921;53.614;9.882;2023-03-17T14:08:47;11.02;;;10.13;;
21519;SDS011;10921;53.614;9.882;2023-03-17T14:11:19;11.65;;;10.43;;
21519;SDS011;10921;53.614;9.882;2023-03-17T14:17:12;12.30;;;10.27;;
21519;SDS011;10921;53.614;9.882;2023-03-17T14:22:39;12.10;;;11.15;;
21519;SDS011;10921;53.614;9.882;2023-03-17T14:25:44;11.80;;;10.80;;
21519;SDS011;10921;53.614;9.882;2023-03-17T14:28:05;11.90;;;10.80;;
21519;SDS011;10921;53.614;9.882;2023-03-17T14:30:36;11.75;;;10.93;;
21519;SDS011;10921;53.614;9.882;2023-03-17T14:33:04;11.93;;;10.93;;
21519;SDS011;10921;53.614;9.882;2023-03-17T14:35:40;16.52;;;11.18;;
21519;SDS011;10921;53.614;9.882;2023-03-17T14:38:28;13.25;;;11.57;;
21519;SDS011;10921;53.614;9.882;2023-03-17T14:41:04;12.10;;;11.15;;
21519;SDS011;10921;53.614;9.882;2023-03-17T14:43:33;11.95;;;11.05;;
21519;SDS011;10921;53.614;9.882;2023-03-17T14:46:04;12.50;;;11.50;;
21519;SDS011;10921;53.614;9.882;2023-03-17T14:48:36;12.55;;;11.45;;
21519;SDS011;10921;53.614;9.882;2023-03-17T14:51:08;13.32;;;11.40;;
21519;SDS011;10921;53.614;9.882;2023-03-17T14:56:34;12.65;;;11.60;;
21519;SDS011;10921;53.614;9.882;2023-03-17T14:59:07;12.13;;;11.15;;
21519;SDS011;10921;53.614;9.882;2023-03-17T15:02:21;12.60;;;11.43;;
21519;SDS011;10921;53.614;9.882;2023-03-17T15:04:51;12.13;;;11.10;;
21519;SDS011;10921;53.614;9.882;2023-03-17T15:10:14;11.77;;;10.65;;
21519;SDS011;10921;53.614;9.882;2023-03-17T15:12:45;11.20;;;10.35;;
21519;SDS011;10921;53.614;9.882;2023-03-17T15:15:18;11.40;;;10.30;;
21519;SDS011;10921;53.614;9.882;2023-03-17T15:17:54;11.68;;;10.63;;
21519;SDS011;10921;53.614;9.882;2023-03-17T15:20:37;10.95;;;10.15;;
21519;SDS011;10921;53.614;9.882;2023-03-17T15:23:20;11.27;;;10.18;;
21519;SDS011;10921;53.614;9.882;2023-03-17T15:25:51;11.18;;;10.30;;
21519;SDS011;10921;53.614;9.882;2023-03-17T15:28:24;11.10;;;10.20;;
21519;SDS011;10921;53.614;9.882;2023-03-17T15:30:54;11.02;;;10.20;;
21519;SDS011;10921;53.614;9.882;2023-03-17T15:33:35;10.27;;;9.43;;
21519;SDS011;10921;53.614;9.882;2023-03-17T15:36:04;11.23;;;10.10;;
21519;SDS011;10921;53.614;9.882;2023-03-17T15:38:31;11.02;;;9.73;;
21519;SDS011;10921;53.614;9.882;2023-03-17T15:40:58;10.00;;;9.25;;
21519;SDS011;10921;53.614;9.882;2023-03-17T15:43:25;10.77;;;9.88;;
21519;SDS011;10921;53.614;9.882;2023-03-17T15:46:01;12.68;;;11.32;;
21519;SDS011;10921;53.614;9.882;2023-03-17T15:48:32;11.13;;;10.32;;
21519;SDS011;10921;53.614;9.882;2023-03-17T15:51:01;11.55;;;10.65;;
21519;SDS011;10921;53.614;9.882;2023-03-17T15:53:29;10.23;;;9.50;;
21519;SDS011;10921;53.614;9.882;2023-03-17T15:55:57;10.40;;;9.50;;
21519;SDS011;10921;53.614;9.882;2023-03-17T15:58:24;11.23;;;9.68;;
21519;SDS011;10921;53.614;9.882;2023-03-17T16:00:57;10.13;;;9.40;;
21519;SDS011;10921;53.614;9.882;2023-03-17T16:05:26;10.82;;;10.00;;
21519;SDS011;10921;53.614;9.882;2023-03-17T16:10:23;11.00;;;10.20;;
21519;SDS011;10921;53.614;9.882;2023-03-17T16:12:55;11.27;;;10.25;;
21519;SDS011;10921;53.614;9.882;2023-03-17T16:15:22;11.13;;;10.13;;
21519;SDS011;10921;53.614;9.882;2023-03-17T16:17:55;10.88;;;10.05;;
21519;SDS011;10921;53.614;9.882;2023-03-17T16:23:00;12.00;;;10.82;;
21519;SDS011;10921;53.614;9.882;2023-03-17T16:25:32;11.40;;;10.40;;
21519;SDS011;10921;53.614;9.882;2023-03-17T16:27:59;11.75;;;10.80;;